Airfield :
LOGIN :

Register | Disclaimer

   EN    FR    IT 

 










Legend :    VFR   Marginal VFR   IFR   Intensive IFR   Very Intensive IFR
Visi :
Ceiling :
>= 8 km
>= 3000ft
5 to 8 km
1000 to 3000 ft
1500m to 5 km
500 to 1000 ft
800 to 1500m
200 to 500 ft
< 800m
< 200 ft
Symbols :   Thunderstorms  Fog  Heavy snow  Heavy precipitations  Wind > 20 kt
SIGMETs :     Misc.  Thunderstorms  Icing  Turbulence  Mountain Waves  Volcanic Ashes






- Airport Elevation : 236 ft
- IATA code : MMX


ESMS - Malmö Sturup

CURRENT METAR :
  • 131150Z 07008KT 040V110 CAVOK 25/10 Q1018

EXPIRED METARs :
  • 131120Z 10007KT 050V140 CAVOK 24/10 Q1018
  • 131050Z 10008KT 070V150 CAVOK 24/12 Q1018
  • 131020Z 09008KT 040V120 CAVOK 24/11 Q1018
  • 130950Z 10009KT CAVOK 23/13 Q1018
  • 130920Z 09008KT 050V140 CAVOK 23/14 Q1018

TAF TAF ESMS
Valid from the 13 at 12:00 until the 14 at 12:00 UTC


131105Z 1312/1412 09006KT CAVOK
TEMPO 1402/1405 3500 BR



MET'MAP, your aeronautical weather chart ! - Copyright ORBIFLY December 2007 - Disclaimer

ORBIFLY MET'MAP TEAM :

Programming & Development : Alexandra Zaïnal
Concept & original design : Baudouin d'Aumeries
Assistance for programming : Marc-Olivier Méhu
Technical & hardware support : Manuel Goepfert

Contact : metmap@orbifly.com




SOURCES & CREDITS :

   NOAA